createdAt,value
2023-04-04T00:00:26.631Z,101560.75
2023-04-04T00:02:53.384Z,101558.06
2023-04-04T00:05:21.099Z,101556.13
2023-04-04T00:07:47.983Z,101548.78
2023-04-04T00:10:15.532Z,101559.09
2023-04-04T00:12:43.097Z,101549.38
2023-04-04T00:15:10.521Z,101544.78
2023-04-04T00:17:37.249Z,101550.28
2023-04-04T00:20:04.313Z,101546.31
2023-04-04T00:22:31.560Z,101540.00
2023-04-04T00:24:59.026Z,101533.34
2023-04-04T00:27:25.793Z,101538.50
2023-04-04T00:29:52.487Z,101542.16
2023-04-04T00:32:19.183Z,101541.47
2023-04-04T00:34:45.862Z,101529.16
2023-04-04T00:37:13.112Z,101533.47
2023-04-04T00:39:41.000Z,101529.22
2023-04-04T00:42:08.163Z,101528.91
2023-04-04T00:44:36.490Z,101532.72
2023-04-04T00:47:04.792Z,101533.50
2023-04-04T00:49:31.439Z,101530.19
2023-04-04T00:51:59.254Z,101530.19
2023-04-04T00:54:26.206Z,101525.75
2023-04-04T00:56:55.465Z,101532.31
2023-04-04T00:59:24.084Z,101515.38
2023-04-04T01:01:51.339Z,101522.53
2023-04-04T01:04:18.492Z,101527.03
2023-04-04T01:06:45.868Z,101518.56
2023-04-04T01:09:13.210Z,101520.91
2023-04-04T01:11:40.791Z,101523.91
2023-04-04T01:14:08.017Z,101521.38
2023-04-04T01:16:36.179Z,101524.38
2023-04-04T01:19:08.885Z,101518.06
2023-04-04T01:21:36.268Z,101518.25
2023-04-04T01:24:04.719Z,101522.25
2023-04-04T01:26:43.127Z,101516.94
2023-04-04T01:29:10.428Z,101518.28
2023-04-04T01:31:41.688Z,101516.75
2023-04-04T01:34:22.200Z,101517.88
2023-04-04T01:36:57.586Z,101516.81
2023-04-04T01:39:32.691Z,101514.63
2023-04-04T01:42:02.829Z,101509.84
2023-04-04T01:44:30.163Z,101506.34
2023-04-04T01:46:57.121Z,101509.84
2023-04-04T01:49:24.058Z,101510.53
2023-04-04T01:51:52.560Z,101506.66
2023-04-04T01:54:20.512Z,101513.78
2023-04-04T01:56:47.222Z,101506.69
2023-04-04T01:59:14.109Z,101494.00
2023-04-04T02:01:41.014Z,101496.50
2023-04-04T02:04:08.642Z,101502.38
2023-04-04T02:06:36.180Z,101492.41
2023-04-04T02:09:04.097Z,101494.25
2023-04-04T02:11:30.813Z,101486.44
2023-04-04T02:13:57.518Z,101496.06
2023-04-04T02:16:46.537Z,101488.75
2023-04-04T02:19:13.134Z,101492.59
2023-04-04T02:21:39.784Z,101498.41
2023-04-04T02:24:06.806Z,101501.91
2023-04-04T02:26:33.499Z,101498.44
2023-04-04T02:29:00.208Z,101496.09
2023-04-04T02:31:27.262Z,101499.53
2023-04-04T02:33:54.523Z,101497.91
2023-04-04T02:36:22.076Z,101501.06
2023-04-04T02:38:51.216Z,101498.94
2023-04-04T02:41:18.627Z,101494.91
2023-04-04T02:43:45.353Z,101496.28
2023-04-04T02:46:21.069Z,101499.09
2023-04-04T02:48:53.278Z,101497.94
2023-04-04T02:51:20.298Z,101496.28
2023-04-04T02:53:47.029Z,101500.75
2023-04-04T02:56:37.681Z,101488.47
2023-04-04T02:59:04.906Z,101493.59
2023-04-04T03:01:32.334Z,101494.78
2023-04-04T03:04:03.576Z,101495.94
2023-04-04T03:06:34.449Z,101494.28
2023-04-04T03:09:01.352Z,101490.81
2023-04-04T03:11:28.786Z,101497.78
2023-04-04T03:13:56.232Z,101497.78
2023-04-04T03:16:32.084Z,101496.63
2023-04-04T03:18:58.922Z,101500.59
2023-04-04T03:21:26.130Z,101489.31
2023-04-04T03:23:55.623Z,101495.44
2023-04-04T03:26:22.256Z,101494.47
2023-04-04T03:28:48.890Z,101493.97
2023-04-04T03:31:16.734Z,101502.09
2023-04-04T03:33:45.051Z,101490.16
2023-04-04T03:36:12.999Z,101500.28
2023-04-04T03:38:40.324Z,101491.13
2023-04-04T03:41:08.278Z,101496.63
2023-04-04T03:43:35.065Z,101486.81
2023-04-04T03:46:03.492Z,101494.28
2023-04-04T03:48:30.790Z,101488.66
2023-04-04T03:50:58.237Z,101489.66
2023-04-04T03:53:26.101Z,101491.13
2023-04-04T03:55:55.395Z,101494.78
2023-04-04T03:58:22.680Z,101492.13
2023-04-04T04:00:50.668Z,101487.31
2023-04-04T04:03:17.769Z,101490.63
2023-04-04T04:05:46.022Z,101495.09
2023-04-04T04:08:13.482Z,101493.47
2023-04-04T04:10:40.674Z,101494.59
2023-04-04T04:13:07.431Z,101489.28
2023-04-04T04:15:34.457Z,101490.13
2023-04-04T04:18:04.800Z,101486.78
2023-04-04T04:20:32.958Z,101485.50
2023-04-04T04:22:59.719Z,101489.78
2023-04-04T04:25:26.474Z,101487.78
2023-04-04T04:28:03.686Z,101495.41
2023-04-04T04:30:31.183Z,101486.28
2023-04-04T04:32:58.440Z,101487.97
2023-04-04T04:35:31.765Z,101489.13
2023-04-04T04:38:00.998Z,101493.63
2023-04-04T04:40:27.598Z,101490.13
2023-04-04T04:42:59.810Z,101487.94
2023-04-04T04:45:26.446Z,101488.97
2023-04-04T04:48:04.169Z,101493.09
2023-04-04T04:50:32.590Z,101500.88
2023-04-04T04:52:59.585Z,101492.63
2023-04-04T04:55:26.532Z,101497.09
2023-04-04T04:58:09.073Z,101495.94
2023-04-04T05:00:35.779Z,101497.44
2023-04-04T05:03:02.625Z,101489.47
2023-04-04T05:05:38.154Z,101501.91
2023-04-04T05:08:11.627Z,101496.59
2023-04-04T05:10:46.147Z,101508.09
2023-04-04T05:13:14.139Z,101501.25
2023-04-04T05:15:46.876Z,101503.59
2023-04-04T05:18:14.115Z,101507.09
2023-04-04T05:20:54.238Z,101504.53
2023-04-04T05:23:24.180Z,101502.75
2023-04-04T05:25:53.389Z,101504.09
2023-04-04T05:28:21.445Z,101500.94
2023-04-04T05:30:49.339Z,101502.91
2023-04-04T05:33:23.447Z,101502.09
2023-04-04T05:36:03.443Z,101512.03
2023-04-04T05:38:32.519Z,101502.09
2023-04-04T05:40:59.130Z,101501.09
2023-04-04T05:43:27.164Z,101501.59
2023-04-04T05:46:01.404Z,101512.06
2023-04-04T05:48:34.458Z,101504.44
2023-04-04T05:51:01.760Z,101508.56
2023-04-04T05:53:39.332Z,101513.41
2023-04-04T05:56:06.171Z,101517.03
2023-04-04T05:58:34.325Z,101511.56
2023-04-04T06:01:07.525Z,101516.53
2023-04-04T06:03:35.418Z,101513.72
2023-04-04T06:06:04.565Z,101512.38
2023-04-04T06:08:43.111Z,101513.03
2023-04-04T06:11:17.190Z,101518.69
2023-04-04T06:13:44.151Z,101508.91
2023-04-04T06:16:15.865Z,101514.72
2023-04-04T06:18:42.676Z,101512.41
2023-04-04T06:21:09.740Z,101517.88
2023-04-04T06:23:39.913Z,101519.03
2023-04-04T06:26:07.117Z,101515.22
2023-04-04T06:28:34.571Z,101526.69
2023-04-04T06:31:01.928Z,101520.47
2023-04-04T06:33:32.222Z,101515.28
2023-04-04T06:35:58.997Z,101520.56
2023-04-04T06:38:25.620Z,101528.22
2023-04-04T06:40:52.708Z,101529.91
2023-04-04T06:43:19.488Z,101527.59
2023-04-04T06:45:46.512Z,101531.09
2023-04-04T06:48:13.159Z,101536.47
2023-04-04T06:50:40.186Z,101531.34
2023-04-04T06:53:11.857Z,101532.59
2023-04-04T06:55:38.603Z,101537.88
2023-04-04T06:58:06.209Z,101535.66
2023-04-04T07:00:34.093Z,101532.94
2023-04-04T07:03:01.155Z,101532.81
2023-04-04T07:05:28.530Z,101532.63
2023-04-04T07:07:56.728Z,101538.69
2023-04-04T07:10:24.860Z,101535.03
2023-04-04T07:12:51.765Z,101536.09
2023-04-04T07:15:18.467Z,101533.91
2023-04-04T07:17:45.132Z,101530.22
2023-04-04T07:20:12.171Z,101542.13
2023-04-04T07:22:39.921Z,101530.78
2023-04-04T07:25:07.636Z,101537.56
2023-04-04T07:27:34.513Z,101537.94
2023-04-04T07:30:01.138Z,101532.03
2023-04-04T07:32:29.391Z,101536.25
2023-04-04T07:34:56.104Z,101526.09
2023-04-04T07:37:22.754Z,101522.34
2023-04-04T07:39:50.023Z,101524.69
2023-04-04T07:42:22.886Z,101529.84
2023-04-04T07:44:50.502Z,101526.09
2023-04-04T07:47:17.921Z,101524.13
2023-04-04T07:49:45.059Z,101531.31
2023-04-04T07:52:11.957Z,101540.66
2023-04-04T07:54:40.181Z,101530.22
2023-04-04T07:57:09.573Z,101525.00
2023-04-04T07:59:36.971Z,101518.84
2023-04-04T08:02:03.797Z,101525.53
2023-04-04T08:04:30.622Z,101525.84
2023-04-04T08:06:57.559Z,101528.81
2023-04-04T08:09:24.950Z,101520.44
2023-04-04T08:11:51.734Z,101519.69
2023-04-04T08:14:18.417Z,101519.34
2023-04-04T08:16:45.015Z,101520.75
2023-04-04T08:19:11.652Z,101533.16
2023-04-04T08:21:38.237Z,101532.13
2023-04-04T08:24:05.024Z,101529.38
2023-04-04T08:26:31.919Z,101520.38
2023-04-04T08:28:58.606Z,101520.78
2023-04-04T08:31:25.256Z,101530.38
2023-04-04T08:33:52.521Z,101527.59
2023-04-04T08:36:19.680Z,101527.81
2023-04-04T08:38:46.345Z,101525.84
2023-04-04T08:41:13.416Z,101513.28
2023-04-04T08:43:43.658Z,101523.53
2023-04-04T08:46:12.705Z,101513.81
2023-04-04T08:48:41.555Z,101529.00
2023-04-04T08:51:10.601Z,101516.41
2023-04-04T08:53:37.489Z,101513.94
2023-04-04T08:56:04.491Z,101509.75
2023-04-04T08:58:31.142Z,101509.78
2023-04-04T09:00:57.988Z,101509.44
2023-04-04T09:03:27.219Z,101519.41
2023-04-04T09:05:55.329Z,101510.78
2023-04-04T09:08:24.763Z,101512.22
2023-04-04T09:10:52.806Z,101516.94
2023-04-04T09:13:20.058Z,101510.31
2023-04-04T09:15:49.288Z,101513.19
2023-04-04T09:18:16.998Z,101514.31
2023-04-04T09:20:45.553Z,101517.50
2023-04-04T09:23:13.867Z,101513.88
2023-04-04T09:26:02.453Z,101505.50
2023-04-04T09:28:31.756Z,101504.25
2023-04-04T09:31:02.952Z,101504.03
2023-04-04T09:33:31.803Z,101504.69
2023-04-04T09:36:02.323Z,101501.81
2023-04-04T09:42:48.859Z,101503.66
2023-04-04T09:45:22.427Z,101499.72
2023-04-04T09:47:57.093Z,101507.38
2023-04-04T09:50:28.991Z,101501.78
2023-04-04T09:53:00.333Z,101503.03
2023-04-04T09:55:35.106Z,101493.94
2023-04-04T09:58:16.571Z,101498.31
2023-04-04T10:00:48.644Z,101497.25
2023-04-04T10:03:16.372Z,101501.56
2023-04-04T10:05:45.918Z,101502.63
2023-04-04T10:08:17.893Z,101496.44
2023-04-04T10:11:16.816Z,101494.16
2023-04-04T10:13:46.856Z,101495.34
2023-04-04T10:16:14.396Z,101492.84
2023-04-04T10:18:41.584Z,101490.44
2023-04-04T10:23:41.975Z,101486.94
2023-04-04T10:26:10.145Z,101482.41
2023-04-04T10:28:37.890Z,101482.19
2023-04-04T10:31:24.438Z,101485.28
2023-04-04T10:34:15.195Z,101490.84
2023-04-04T10:36:49.189Z,101486.72
2023-04-04T10:39:26.511Z,101482.59
2023-04-04T10:41:55.412Z,101478.47
2023-04-04T10:44:39.763Z,101486.47
2023-04-04T10:47:22.102Z,101498.50
2023-04-04T10:49:51.271Z,101493.56
2023-04-04T10:52:23.665Z,101487.78
2023-04-04T10:54:55.432Z,101487.56
2023-04-04T10:57:23.349Z,101478.03
2023-04-04T11:00:02.446Z,101476.19
2023-04-04T11:02:57.693Z,101470.47
2023-04-04T11:05:41.007Z,101457.78
2023-04-04T11:20:34.953Z,101451.88
2023-04-04T11:23:07.207Z,101449.63
2023-04-04T11:25:36.168Z,101440.28
2023-04-04T11:28:17.481Z,101437.03
2023-04-04T11:30:48.456Z,101445.28
2023-04-04T11:33:27.513Z,101451.69
2023-04-04T11:35:59.757Z,101444.00
2023-04-04T11:38:29.359Z,101448.16
2023-04-04T11:40:57.845Z,101433.66
2023-04-04T11:43:28.029Z,101426.69
2023-04-04T11:46:06.323Z,101425.66
2023-04-04T11:48:33.128Z,101428.34
2023-04-04T11:51:02.413Z,101428.31
2023-04-04T11:53:31.701Z,101417.44
2023-04-04T11:55:58.371Z,101415.97
2023-04-04T11:58:26.424Z,101422.16
2023-04-04T12:00:53.332Z,101414.13
2023-04-04T12:03:20.180Z,101406.28
2023-04-04T12:05:47.558Z,101403.78
2023-04-04T12:08:15.652Z,101405.25
2023-04-04T12:10:44.268Z,101410.16
2023-04-04T12:13:11.470Z,101394.34
2023-04-04T12:15:38.512Z,101400.50
2023-04-04T12:18:08.737Z,101397.41
2023-04-04T12:20:39.998Z,101396.56
2023-04-04T12:23:06.791Z,101390.75
2023-04-04T12:25:34.273Z,101393.44
2023-04-04T12:28:03.623Z,101390.34
2023-04-04T12:30:31.628Z,101392.66
2023-04-04T12:32:58.816Z,101388.53
2023-04-04T12:35:26.000Z,101384.00
2023-04-04T12:37:59.872Z,101387.91
2023-04-04T12:40:32.418Z,101385.22
2023-04-04T12:43:02.109Z,101378.44
2023-04-04T12:45:29.773Z,101374.94
2023-04-04T12:47:58.534Z,101365.66
2023-04-04T12:50:28.343Z,101361.31
2023-04-04T12:53:13.265Z,101356.59
2023-04-04T12:55:47.858Z,101362.78
2023-04-04T12:58:19.892Z,101363.59
2023-04-04T13:00:46.749Z,101355.97
2023-04-04T13:03:15.659Z,101361.91
2023-04-04T13:05:47.275Z,101357.78
2023-04-04T13:08:13.978Z,101346.25
2023-04-04T13:11:05.013Z,101356.78
2023-04-04T13:13:40.135Z,101344.78
2023-04-04T13:16:12.730Z,101350.53
2023-04-04T13:18:43.295Z,101352.19
2023-04-04T13:21:11.994Z,101343.50
2023-04-04T13:23:40.620Z,101341.66
2023-04-04T13:26:09.345Z,101328.91
2023-04-04T13:28:36.556Z,101328.91
2023-04-04T13:31:08.675Z,101327.94
2023-04-04T13:33:35.694Z,101329.63
2023-04-04T13:36:02.823Z,101326.72
2023-04-04T13:38:30.720Z,101325.78
2023-04-04T13:40:58.841Z,101320.78
2023-04-04T13:43:25.989Z,101315.22
2023-04-04T13:45:55.905Z,101312.19
2023-04-04T13:48:22.898Z,101319.66
2023-04-04T13:50:55.212Z,101311.75
2023-04-04T13:53:22.298Z,101307.69
2023-04-04T13:58:20.220Z,101298.84
2023-04-04T14:00:51.021Z,101300.59
2023-04-04T14:03:18.005Z,101302.75
2023-04-04T14:05:44.790Z,101292.44
2023-04-04T14:08:11.709Z,101292.94
2023-04-04T14:10:38.351Z,101295.44
2023-04-04T14:13:05.040Z,101296.91
2023-04-04T14:15:33.053Z,101290.72
2023-04-04T14:17:59.931Z,101284.56
2023-04-04T14:20:26.846Z,101282.66
2023-04-04T14:22:53.460Z,101276.13
2023-04-04T14:25:20.084Z,101275.25
2023-04-04T14:27:46.742Z,101276.94
2023-04-04T14:30:13.749Z,101280.59
2023-04-04T14:32:40.376Z,101275.00
2023-04-04T14:35:07.257Z,101276.13
2023-04-04T14:37:33.862Z,101275.94
2023-04-04T14:40:00.624Z,101277.63
2023-04-04T14:42:27.527Z,101270.47
2023-04-04T14:44:55.088Z,101273.59
2023-04-04T14:47:22.059Z,101272.09
2023-04-04T14:49:48.708Z,101266.47
2023-04-04T14:52:15.643Z,101263.19
2023-04-04T14:54:42.296Z,101259.84
2023-04-04T14:57:09.191Z,101254.28
2023-04-04T14:59:36.570Z,101258.72
2023-04-04T15:02:03.353Z,101255.81
2023-04-04T15:04:30.111Z,101248.50
2023-04-04T15:07:00.781Z,101250.16
2023-04-04T15:09:31.800Z,101255.69
2023-04-04T15:11:58.726Z,101262.94
2023-04-04T15:14:25.593Z,101248.41
2023-04-04T15:16:52.322Z,101256.00
2023-04-04T15:19:19.059Z,101256.91
2023-04-04T15:21:46.242Z,101249.94
2023-04-04T15:24:15.456Z,101241.22
2023-04-04T15:26:42.116Z,101234.22
2023-04-04T15:29:08.841Z,101238.50
2023-04-04T15:31:35.701Z,101239.28
2023-04-04T15:34:02.444Z,101243.03
2023-04-04T15:36:29.164Z,101240.41
2023-04-04T15:38:56.171Z,101235.41
2023-04-04T15:41:23.208Z,101232.72
2023-04-04T15:43:50.169Z,101235.03
2023-04-04T15:46:16.972Z,101233.19
2023-04-04T15:48:43.675Z,101224.88
2023-04-04T15:51:10.781Z,101225.09
2023-04-04T15:53:37.707Z,101221.19
2023-04-04T15:56:04.479Z,101225.53
2023-04-04T15:58:31.132Z,101223.38
2023-04-04T16:00:57.928Z,101224.25
2023-04-04T16:03:25.686Z,101223.50
2023-04-04T16:05:52.519Z,101215.63
2023-04-04T16:08:19.278Z,101217.44
2023-04-04T16:10:45.977Z,101215.84
2023-04-04T16:13:13.975Z,101215.38
2023-04-04T16:15:40.835Z,101217.25
2023-04-04T16:18:07.801Z,101208.72
2023-04-04T16:20:35.002Z,101215.03
2023-04-04T16:23:01.689Z,101210.66
2023-04-04T16:25:28.591Z,101204.75
2023-04-04T16:27:55.441Z,101201.28
2023-04-04T16:30:22.079Z,101208.72
2023-04-04T16:32:49.182Z,101195.47
2023-04-04T16:35:16.074Z,101201.22
2023-04-04T16:37:42.968Z,101198.66
2023-04-04T16:40:10.344Z,101198.38
2023-04-04T16:42:36.996Z,101199.34
2023-04-04T16:45:04.023Z,101193.72
2023-04-04T16:47:30.855Z,101196.66
2023-04-04T16:49:58.497Z,101191.81
2023-04-04T16:52:25.483Z,101179.28
2023-04-04T16:54:53.044Z,101184.09
2023-04-04T16:57:19.856Z,101188.06
2023-04-04T16:59:46.472Z,101184.38
2023-04-04T17:02:14.800Z,101190.41
2023-04-04T17:04:41.968Z,101185.72
2023-04-04T17:07:09.016Z,101197.22
2023-04-04T17:09:35.855Z,101193.84
2023-04-04T17:12:03.365Z,101194.22
2023-04-04T17:14:30.938Z,101198.16
2023-04-04T17:17:00.466Z,101194.56
2023-04-04T17:19:30.021Z,101194.97
2023-04-04T17:21:57.042Z,101195.50
2023-04-04T17:24:25.496Z,101190.59
2023-04-04T17:26:52.817Z,101206.13
2023-04-04T17:29:20.725Z,101201.53
2023-04-04T17:31:50.879Z,101189.59
2023-04-04T17:34:17.554Z,101192.22
2023-04-04T17:36:44.269Z,101188.63
2023-04-04T17:39:10.941Z,101191.97
2023-04-04T17:41:37.780Z,101194.09
2023-04-04T17:44:04.422Z,101185.88
2023-04-04T17:46:31.169Z,101193.28
2023-04-04T17:48:57.978Z,101183.34
2023-04-04T17:51:26.675Z,101195.44
2023-04-04T17:53:53.517Z,101189.69
2023-04-04T17:56:20.341Z,101186.78
2023-04-04T17:58:47.108Z,101190.97
2023-04-04T18:01:13.959Z,101193.63
2023-04-04T18:03:41.173Z,101181.47
2023-04-04T18:06:09.524Z,101183.38
2023-04-04T18:08:36.403Z,101185.97
2023-04-04T18:11:08.304Z,101181.69
2023-04-04T18:13:35.506Z,101180.44
2023-04-04T18:16:02.787Z,101177.66
2023-04-04T18:18:29.852Z,101187.38
2023-04-04T18:20:57.033Z,101190.69
2023-04-04T18:23:27.393Z,101180.34
2023-04-04T18:25:55.662Z,101189.66
2023-04-04T18:28:22.518Z,101197.53
2023-04-04T18:30:49.632Z,101192.88
2023-04-04T18:33:16.525Z,101196.50
2023-04-04T18:35:43.489Z,101212.38
2023-04-04T18:38:13.599Z,101204.97
2023-04-04T18:40:41.741Z,101206.44
2023-04-04T18:43:08.691Z,101212.22
2023-04-04T18:45:40.254Z,101214.69
2023-04-04T18:48:08.691Z,101219.84
2023-04-04T18:50:36.318Z,101220.81
2023-04-04T18:53:07.867Z,101217.38
2023-04-04T18:55:34.919Z,101208.03
2023-04-04T18:58:01.830Z,101217.59
2023-04-04T19:00:28.500Z,101215.91
2023-04-04T19:02:57.050Z,101221.31
2023-04-04T19:05:24.496Z,101221.50
2023-04-04T19:07:54.105Z,101225.81
2023-04-04T19:10:21.879Z,101222.75
2023-04-04T19:12:48.898Z,101227.69
2023-04-04T19:15:15.767Z,101220.91
2023-04-04T19:17:43.280Z,101227.56
2023-04-04T19:20:11.103Z,101223.00
2023-04-04T19:22:37.873Z,101225.88
2023-04-04T19:25:04.973Z,101221.78
2023-04-04T19:27:31.894Z,101234.16
2023-04-04T19:29:58.479Z,101231.28
2023-04-04T19:32:27.361Z,101234.38
2023-04-04T19:34:54.190Z,101237.03
2023-04-04T19:37:20.902Z,101232.31
2023-04-04T19:39:48.802Z,101236.22
2023-04-04T19:42:18.529Z,101242.00
2023-04-04T19:44:45.183Z,101244.06
2023-04-04T19:47:18.056Z,101245.28
2023-04-04T19:49:45.296Z,101244.06
2023-04-04T19:52:13.305Z,101250.63
2023-04-04T19:54:42.962Z,101258.47
2023-04-04T19:57:18.260Z,101253.72
2023-04-04T20:00:04.948Z,101249.97
2023-04-04T20:02:34.384Z,101252.84
2023-04-04T20:05:01.502Z,101251.00
2023-04-04T20:07:29.313Z,101252.44
2023-04-04T20:09:56.238Z,101252.25
2023-04-04T20:12:26.397Z,101257.16
2023-04-04T20:14:58.714Z,101250.34
2023-04-04T20:17:25.590Z,101247.03
2023-04-04T20:19:52.584Z,101257.13
2023-04-04T20:22:19.535Z,101257.09
2023-04-04T20:24:47.047Z,101250.88
2023-04-04T20:27:40.280Z,101249.09
2023-04-04T20:30:11.518Z,101245.41
2023-04-04T20:32:38.484Z,101247.84
2023-04-04T20:35:06.768Z,101252.59
2023-04-04T20:37:33.552Z,101258.06
2023-04-04T20:40:04.406Z,101257.03
2023-04-04T20:42:37.859Z,101264.25
2023-04-04T20:45:11.123Z,101261.97
2023-04-04T20:47:49.100Z,101258.00
2023-04-04T20:50:20.415Z,101260.63
2023-04-04T20:52:49.812Z,101268.03
2023-04-04T20:55:22.574Z,101265.16
2023-04-04T20:57:50.769Z,101259.81
2023-04-04T21:00:29.725Z,101270.09
2023-04-04T21:02:59.262Z,101265.06
2023-04-04T21:05:29.844Z,101269.31
2023-04-04T21:07:57.399Z,101274.19
2023-04-04T21:10:27.012Z,101273.66
2023-04-04T21:12:56.232Z,101275.44
2023-04-04T21:15:28.268Z,101269.47
2023-04-04T21:17:57.898Z,101275.56
2023-04-04T21:20:46.277Z,101270.72
2023-04-04T21:23:25.011Z,101270.47
2023-04-04T21:25:57.921Z,101264.25
2023-04-04T21:28:37.979Z,101274.53
2023-04-04T21:31:20.863Z,101277.59
2023-04-04T21:33:56.112Z,101278.88
2023-04-04T21:36:28.498Z,101274.81
2023-04-04T21:38:57.156Z,101278.66
2023-04-04T21:41:26.718Z,101282.75
2023-04-04T21:43:54.885Z,101280.19
2023-04-04T21:46:24.889Z,101283.09
2023-04-04T21:48:52.861Z,101280.28
2023-04-04T21:51:19.923Z,101279.19
2023-04-04T21:53:47.160Z,101277.97
2023-04-04T21:56:14.276Z,101278.44
2023-04-04T21:58:41.362Z,101270.97
2023-04-04T22:01:08.435Z,101275.69
2023-04-04T22:03:37.781Z,101267.06
2023-04-04T22:06:04.937Z,101278.09
2023-04-04T22:08:31.578Z,101272.09
2023-04-04T22:11:01.851Z,101269.88
2023-04-04T22:13:35.355Z,101267.69
2023-04-04T22:16:04.602Z,101262.16
2023-04-04T22:18:33.018Z,101269.97
2023-04-04T22:21:04.685Z,101270.47
2023-04-04T22:23:37.935Z,101267.56
2023-04-04T22:26:06.309Z,101260.28
2023-04-04T22:28:34.138Z,101269.31
2023-04-04T22:31:01.965Z,101257.94
2023-04-04T22:33:31.333Z,101256.13
2023-04-04T22:35:59.269Z,101257.00
2023-04-04T22:38:27.122Z,101254.00
2023-04-04T22:40:54.844Z,101253.78
2023-04-04T22:43:22.104Z,101252.78
2023-04-04T22:45:49.628Z,101245.56
2023-04-04T22:48:17.177Z,101249.69
2023-04-04T22:50:49.776Z,101248.03
2023-04-04T22:53:16.917Z,101243.75
2023-04-04T22:55:43.623Z,101245.09
2023-04-04T22:58:10.483Z,101250.50
2023-04-04T23:00:37.221Z,101242.09
2023-04-04T23:03:05.281Z,101246.72
2023-04-04T23:05:32.010Z,101240.34
2023-04-04T23:08:02.807Z,101236.56
2023-04-04T23:10:30.237Z,101230.94
2023-04-04T23:12:56.942Z,101231.94
2023-04-04T23:15:23.593Z,101239.59
2023-04-04T23:17:50.866Z,101239.53
2023-04-04T23:20:18.240Z,101241.34
2023-04-04T23:22:45.699Z,101237.59
2023-04-04T23:25:12.512Z,101230.75
2023-04-04T23:27:40.089Z,101232.59
2023-04-04T23:30:07.505Z,101226.88
2023-04-04T23:32:34.234Z,101230.56
2023-04-04T23:35:00.903Z,101232.47
2023-04-04T23:37:28.430Z,101232.13
2023-04-04T23:39:55.066Z,101228.44
2023-04-04T23:42:21.704Z,101228.84
2023-04-04T23:44:48.409Z,101226.59
2023-04-04T23:47:16.101Z,101225.06
2023-04-04T23:49:42.853Z,101219.22
2023-04-04T23:52:09.501Z,101213.50
2023-04-04T23:54:36.440Z,101212.94
2023-04-04T23:57:03.089Z,101217.56
2023-04-04T23:59:29.904Z,101210.56
